Skip Navigation LinksHome page > Weather > Current weather Skip Navigation Links

Current Weather

San Francisco International, San Francisco

For information only: do not use for flight planning or navigation.
Latest weather
Observation time Wednesday, July 1, 2015 11:56 PM PDT
Local time Thursday, July 2, 2015 1:06 AM PDT
Flight conditions Visual Meteorological Conditions
Winds
Wind direction West-Northwest (290°)
Wind speed 13 mph
Visibility 10 mi.
Sky condition
Ceiling 15,000 ft. broken clouds
Cloud layer few clouds 400 ft.
Cloud layer broken clouds 15,000 ft.
Cloud layer broken clouds 20,000 ft.
Temperature 61°F
Dewpoint 56°F
Altimeter 29.90 in.Hg
Derived measurements
Relative humidity 83%
Density altitude 380 ft.
Sea-level pressure 29.90 in.Hg
Remarks
Automated weather observing station with precipitation discriminator.
METAR KSFO 020656Z 29011KT 10SM FEW004 BKN150 BKN200 16/13 A2990 RMK AO2 SLP124 T01610133

Settings

Location code

InnerDrive.Weather 4.0.5567.0 Release CLR 4.0.30319.34014
Copyright ©2015 Inner Drive Technology. All rights reserved. Portions Copyright ©1986-2015 David Braverman.

Find weather

Site navigation


Skip Navigation Links

Place info

Page info

PayPal - The safer, easier way to pay online!

Return home.

Copyright ©2015 Inner Drive Technology. Purveyors of fine, hand-crafted computer software. Page printed 2015-07-02T08:06:04 UTC.